createdAt,value
2023-04-15T00:01:10.102Z,11.43
2023-04-15T00:03:36.930Z,11.42
2023-04-15T00:06:04.142Z,11.45
2023-04-15T00:08:30.990Z,11.41
2023-04-15T00:11:02.556Z,11.45
2023-04-15T00:13:36.268Z,11.43
2023-04-15T00:16:02.861Z,11.42
2023-04-15T00:18:32.316Z,11.39
2023-04-15T00:20:59.318Z,11.37
2023-04-15T00:23:26.621Z,11.35
2023-04-15T00:25:53.093Z,11.30
2023-04-15T00:28:19.788Z,11.26
2023-04-15T00:30:49.792Z,11.25
2023-04-15T00:33:18.976Z,11.23
2023-04-15T00:35:45.716Z,11.15
2023-04-15T00:38:13.147Z,11.20
2023-04-15T00:40:39.814Z,11.17
2023-04-15T00:43:07.119Z,11.16
2023-04-15T00:45:34.138Z,11.11
2023-04-15T00:48:00.665Z,11.10
2023-04-15T00:50:27.207Z,11.12
2023-04-15T00:52:53.974Z,11.12
2023-04-15T00:55:21.020Z,11.13
2023-04-15T00:57:47.569Z,11.11
2023-04-15T01:00:14.303Z,11.06
2023-04-15T01:02:41.401Z,11.03
2023-04-15T01:05:08.517Z,11.05
2023-04-15T01:07:35.035Z,11.01
2023-04-15T01:10:03.255Z,10.98
2023-04-15T01:12:32.384Z,10.96
2023-04-15T01:15:00.016Z,10.92
2023-04-15T01:17:29.522Z,10.89
2023-04-15T01:19:59.934Z,10.85
2023-04-15T01:22:27.870Z,10.85
2023-04-15T01:25:18.769Z,10.81
2023-04-15T01:27:45.515Z,10.73
2023-04-15T01:30:12.172Z,10.69
2023-04-15T01:32:38.759Z,10.69
2023-04-15T01:35:05.740Z,10.68
2023-04-15T01:37:32.968Z,10.68
2023-04-15T01:39:59.833Z,10.60
2023-04-15T01:42:26.429Z,10.58
2023-04-15T01:44:53.662Z,10.56
2023-04-15T01:47:20.167Z,10.56
2023-04-15T01:49:46.640Z,10.51
2023-04-15T01:52:16.188Z,10.50
2023-04-15T01:54:42.748Z,10.50
2023-04-15T01:57:09.918Z,10.46
2023-04-15T01:59:37.064Z,10.41
2023-04-15T02:02:03.669Z,10.38
2023-04-15T02:04:30.274Z,10.37
2023-04-15T02:06:56.833Z,10.33
2023-04-15T02:09:23.321Z,10.32
2023-04-15T02:11:53.642Z,10.32
2023-04-15T02:14:22.474Z,10.32
2023-04-15T02:16:48.997Z,10.30
2023-04-15T02:19:15.833Z,10.27
2023-04-15T02:21:42.285Z,10.26
2023-04-15T02:24:09.042Z,10.23
2023-04-15T02:26:35.515Z,10.20
2023-04-15T02:29:02.015Z,10.17
2023-04-15T02:31:28.570Z,10.13
2023-04-15T02:34:00.652Z,10.08
2023-04-15T02:36:27.169Z,10.05
2023-04-15T02:38:53.514Z,10.03
2023-04-15T02:41:22.750Z,10.01
2023-04-15T02:43:49.215Z,10.01
2023-04-15T02:46:15.893Z,9.94
2023-04-15T02:48:42.362Z,9.88
2023-04-15T02:51:16.744Z,9.86
2023-04-15T02:53:43.190Z,9.84
2023-04-15T02:56:09.766Z,9.81
2023-04-15T02:58:36.664Z,9.79
2023-04-15T03:01:03.353Z,9.73
2023-04-15T03:03:31.328Z,9.74
2023-04-15T03:05:57.780Z,9.71
2023-04-15T03:08:24.347Z,9.68
2023-04-15T03:10:52.523Z,9.68
2023-04-15T03:13:19.434Z,9.65
2023-04-15T03:15:48.881Z,9.60
2023-04-15T03:18:17.040Z,9.59
2023-04-15T03:20:43.534Z,9.57
2023-04-15T03:23:10.039Z,9.55
2023-04-15T03:25:37.402Z,9.53
2023-04-15T03:28:04.179Z,9.50
2023-04-15T03:30:30.622Z,9.48
2023-04-15T03:32:57.155Z,9.45
2023-04-15T03:35:23.581Z,9.42
2023-04-15T03:37:50.015Z,9.41
2023-04-15T03:40:17.010Z,9.41
2023-04-15T03:42:46.047Z,9.30
2023-04-15T03:45:12.541Z,9.36
2023-04-15T03:47:38.980Z,9.35
2023-04-15T03:50:06.021Z,9.35
2023-04-15T03:52:32.617Z,9.35
2023-04-15T03:54:59.124Z,9.35
2023-04-15T03:57:25.517Z,9.32
2023-04-15T03:59:51.946Z,9.29
2023-04-15T04:02:18.578Z,9.27
2023-04-15T04:04:45.169Z,9.20
2023-04-15T04:07:17.852Z,9.19
2023-04-15T04:09:46.161Z,9.17
2023-04-15T04:12:13.695Z,9.16
2023-04-15T04:14:40.294Z,9.13
2023-04-15T04:17:06.841Z,9.13
2023-04-15T04:19:33.679Z,9.07
2023-04-15T04:22:00.397Z,9.09
2023-04-15T04:24:26.810Z,9.07
2023-04-15T04:26:57.259Z,9.07
2023-04-15T04:29:24.169Z,9.05
2023-04-15T04:31:50.970Z,9.00
2023-04-15T04:34:17.451Z,8.98
2023-04-15T04:36:44.414Z,8.98
2023-04-15T04:39:11.085Z,8.98
2023-04-15T04:41:37.625Z,8.98
2023-04-15T04:44:04.400Z,8.94
2023-04-15T04:46:30.915Z,8.95
2023-04-15T04:48:57.316Z,8.94
2023-04-15T04:51:23.703Z,8.93
2023-04-15T04:53:53.083Z,8.92
2023-04-15T04:56:19.576Z,8.89
2023-04-15T04:58:46.827Z,8.87
2023-04-15T05:01:13.633Z,8.85
2023-04-15T05:03:41.864Z,8.84
2023-04-15T05:06:08.896Z,8.82
2023-04-15T05:08:35.399Z,8.79
2023-04-15T05:11:03.288Z,8.77
2023-04-15T05:13:30.256Z,8.78
2023-04-15T05:15:59.536Z,8.75
2023-04-15T05:18:26.133Z,8.73
2023-04-15T05:20:52.673Z,8.70
2023-04-15T05:23:19.250Z,8.71
2023-04-15T05:25:45.948Z,8.72
2023-04-15T05:28:12.585Z,8.73
2023-04-15T05:30:39.393Z,8.73
2023-04-15T05:33:05.992Z,8.76
2023-04-15T05:35:32.583Z,8.76
2023-04-15T05:37:58.948Z,8.76
2023-04-15T05:40:25.407Z,8.77
2023-04-15T05:42:51.802Z,8.78
2023-04-15T05:45:18.840Z,8.78
2023-04-15T05:47:45.434Z,8.78
2023-04-15T05:50:11.977Z,8.82
2023-04-15T05:52:38.436Z,8.87
2023-04-15T05:55:06.157Z,8.97
2023-04-15T05:57:32.670Z,9.13
2023-04-15T05:59:59.116Z,9.37
2023-04-15T06:02:26.603Z,9.62
2023-04-15T06:04:55.508Z,9.85
2023-04-15T06:07:22.009Z,10.07
2023-04-15T06:09:48.657Z,10.26
2023-04-15T06:12:15.739Z,10.42
2023-04-15T06:14:42.271Z,10.64
2023-04-15T06:17:09.187Z,10.82
2023-04-15T06:19:36.687Z,10.99
2023-04-15T06:22:03.651Z,11.16
2023-04-15T06:24:30.502Z,11.43
2023-04-15T06:26:57.578Z,11.65
2023-04-15T06:29:24.020Z,11.85
2023-04-15T06:31:51.405Z,12.13
2023-04-15T06:34:17.950Z,12.45
2023-04-15T06:36:44.341Z,12.76
2023-04-15T06:39:11.093Z,13.07
2023-04-15T06:41:39.356Z,13.44
2023-04-15T06:44:05.953Z,13.89
2023-04-15T06:46:32.828Z,14.18
2023-04-15T06:49:02.137Z,14.50
2023-04-15T06:51:28.736Z,14.83
2023-04-15T06:53:55.327Z,15.18
2023-04-15T06:56:21.970Z,15.61
2023-04-15T06:58:48.365Z,16.02
2023-04-15T07:01:14.810Z,16.33
2023-04-15T07:03:42.016Z,16.63
2023-04-15T07:06:09.581Z,16.90
2023-04-15T07:08:36.161Z,17.16
2023-04-15T07:11:02.717Z,17.51
2023-04-15T07:13:32.041Z,17.89
2023-04-15T07:15:58.868Z,18.35
2023-04-15T07:18:25.624Z,18.71
2023-04-15T07:20:52.143Z,18.81
2023-04-15T07:23:18.650Z,18.96
2023-04-15T07:25:45.302Z,18.85
2023-04-15T07:28:12.114Z,18.85
2023-04-15T07:30:38.906Z,19.01
2023-04-15T07:33:05.689Z,19.14
2023-04-15T07:35:32.149Z,19.30
2023-04-15T07:37:58.778Z,19.58
2023-04-15T07:40:25.278Z,19.74
2023-04-15T07:42:52.400Z,19.90
2023-04-15T07:45:21.395Z,20.19
2023-04-15T07:47:47.814Z,20.56
2023-04-15T07:50:14.696Z,20.79
2023-04-15T07:52:41.319Z,21.06
2023-04-15T07:55:08.692Z,21.33
2023-04-15T07:57:36.260Z,21.54
2023-04-15T08:00:05.781Z,21.50
2023-04-15T08:02:32.660Z,21.44
2023-04-15T08:04:59.829Z,21.41
2023-04-15T08:07:26.405Z,21.36
2023-04-15T08:09:52.879Z,21.38
2023-04-15T08:12:19.588Z,21.46
2023-04-15T08:14:46.718Z,21.52
2023-04-15T08:17:13.424Z,21.58
2023-04-15T08:19:40.841Z,21.77
2023-04-15T08:22:17.951Z,22.00
2023-04-15T08:24:45.081Z,22.16
2023-04-15T08:27:11.453Z,22.32
2023-04-15T08:29:37.827Z,22.55
2023-04-15T08:32:04.613Z,22.79
2023-04-15T08:34:31.194Z,22.94
2023-04-15T08:36:57.687Z,22.88
2023-04-15T08:39:24.144Z,22.89
2023-04-15T08:42:02.796Z,23.02
2023-04-15T08:44:33.864Z,23.25
2023-04-15T08:47:04.385Z,23.52
2023-04-15T08:49:32.493Z,23.56
2023-04-15T08:52:00.289Z,23.42
2023-04-15T08:54:27.370Z,23.37
2023-04-15T08:56:54.563Z,23.09
2023-04-15T08:59:24.446Z,22.94
2023-04-15T09:01:51.816Z,22.92
2023-04-15T09:04:18.406Z,22.75
2023-04-15T09:06:45.283Z,22.62
2023-04-15T09:09:14.516Z,22.42
2023-04-15T09:11:42.072Z,22.02
2023-04-15T09:14:09.543Z,21.78
2023-04-15T09:16:58.695Z,21.42
2023-04-15T09:19:25.733Z,21.10
2023-04-15T09:21:58.678Z,20.95
2023-04-15T09:24:27.105Z,20.65
2023-04-15T09:26:55.499Z,20.29
2023-04-15T09:29:24.793Z,20.00
2023-04-15T09:31:51.496Z,19.92
2023-04-15T09:34:17.955Z,20.01
2023-04-15T09:36:50.943Z,20.08
2023-04-15T09:39:17.907Z,20.09
2023-04-15T09:41:45.177Z,20.20
2023-04-15T09:44:25.615Z,20.18
2023-04-15T09:46:52.017Z,20.10
2023-04-15T09:49:19.486Z,20.20
2023-04-15T09:51:57.613Z,20.25
2023-04-15T09:54:36.184Z,20.35
2023-04-15T09:57:13.088Z,20.53
2023-04-15T09:59:39.706Z,20.54
2023-04-15T10:02:07.485Z,20.61
2023-04-15T10:04:41.563Z,20.56
2023-04-15T10:07:12.288Z,20.50
2023-04-15T10:09:39.751Z,20.53
2023-04-15T10:12:06.534Z,20.50
2023-04-15T10:14:35.522Z,20.47
2023-04-15T10:17:04.367Z,20.46
2023-04-15T10:19:33.403Z,20.52
2023-04-15T10:22:00.454Z,20.59
2023-04-15T10:24:27.828Z,20.74
2023-04-15T10:26:55.374Z,20.84
2023-04-15T10:29:23.330Z,20.90
2023-04-15T10:31:50.930Z,20.95
2023-04-15T10:34:18.871Z,20.93
2023-04-15T10:36:48.001Z,20.82
2023-04-15T10:39:34.583Z,20.73
2023-04-15T10:42:15.634Z,20.56
2023-04-15T10:44:44.438Z,20.40
2023-04-15T10:47:15.579Z,20.40
2023-04-15T10:49:47.656Z,20.49
2023-04-15T10:52:16.203Z,20.50
2023-04-15T10:54:42.754Z,20.38
2023-04-15T10:57:15.511Z,20.20
2023-04-15T11:00:00.298Z,20.14
2023-04-15T11:02:42.147Z,20.30
2023-04-15T11:05:09.451Z,20.30
2023-04-15T11:07:56.055Z,20.09
2023-04-15T11:10:25.571Z,20.11
2023-04-15T11:12:54.391Z,20.07
2023-04-15T11:15:42.993Z,19.99
2023-04-15T11:18:17.352Z,19.92
2023-04-15T11:20:45.246Z,19.70
2023-04-15T11:23:15.145Z,19.47
2023-04-15T11:25:43.066Z,19.20
2023-04-15T11:28:11.374Z,19.17
2023-04-15T11:30:39.401Z,19.13
2023-04-15T11:33:10.101Z,18.89
2023-04-15T11:35:36.764Z,18.79
2023-04-15T11:38:05.367Z,18.89
2023-04-15T11:40:35.817Z,19.00
2023-04-15T11:43:12.604Z,19.03
2023-04-15T11:45:49.719Z,19.25
2023-04-15T11:48:16.253Z,19.24
2023-04-15T11:50:42.715Z,19.32
2023-04-15T11:53:11.916Z,19.42
2023-04-15T11:55:43.218Z,19.22
2023-04-15T11:58:17.068Z,19.36
2023-04-15T12:00:55.046Z,19.20
2023-04-15T12:03:25.931Z,19.27
2023-04-15T12:06:19.153Z,19.23
2023-04-15T12:08:52.699Z,18.95
2023-04-15T12:11:21.398Z,19.11
2023-04-15T12:13:49.745Z,19.15
2023-04-15T12:16:19.856Z,19.31
2023-04-15T12:18:47.653Z,19.35
2023-04-15T12:21:14.548Z,19.40
2023-04-15T12:23:50.605Z,19.28
2023-04-15T12:26:18.041Z,19.14
2023-04-15T12:28:47.634Z,19.00
2023-04-15T12:31:14.589Z,18.82
2023-04-15T12:33:41.125Z,18.76
2023-04-15T12:36:08.263Z,18.93
2023-04-15T12:38:34.704Z,18.97
2023-04-15T12:41:01.324Z,18.76
2023-04-15T12:43:30.540Z,18.62
2023-04-15T12:45:57.007Z,18.55
2023-04-15T12:48:23.678Z,18.51
2023-04-15T12:50:50.159Z,18.56
2023-04-15T12:53:16.763Z,18.63
2023-04-15T12:55:43.208Z,18.73
2023-04-15T12:58:11.710Z,18.85
2023-04-15T13:00:38.550Z,18.70
2023-04-15T13:03:07.069Z,18.71
2023-04-15T13:05:34.167Z,18.79
2023-04-15T13:08:00.872Z,18.63
2023-04-15T13:10:28.468Z,18.48
2023-04-15T13:12:56.641Z,18.45
2023-04-15T13:15:23.444Z,18.22
2023-04-15T13:17:50.547Z,18.17
2023-04-15T13:20:17.514Z,18.12
2023-04-15T13:22:44.024Z,18.27
2023-04-15T13:25:11.733Z,18.11
2023-04-15T13:27:38.575Z,18.11
2023-04-15T13:30:06.356Z,17.97
2023-04-15T13:32:33.009Z,17.97
2023-04-15T13:34:59.648Z,18.04
2023-04-15T13:37:27.983Z,17.88
2023-04-15T13:39:55.866Z,17.69
2023-04-15T13:42:23.325Z,17.62
2023-04-15T13:44:51.457Z,17.50
2023-04-15T13:47:19.640Z,17.33
2023-04-15T13:49:46.373Z,17.23
2023-04-15T13:52:12.815Z,17.16
2023-04-15T13:54:39.435Z,17.32
2023-04-15T13:57:06.727Z,17.22
2023-04-15T13:59:34.968Z,17.05
2023-04-15T14:02:02.197Z,16.80
2023-04-15T14:04:28.985Z,16.56
2023-04-15T14:06:56.289Z,16.34
2023-04-15T14:09:26.265Z,16.14
2023-04-15T14:11:53.140Z,16.08
2023-04-15T14:14:19.576Z,15.95
2023-04-15T14:16:46.399Z,15.93
2023-04-15T14:19:13.021Z,15.93
2023-04-15T14:21:39.605Z,15.75
2023-04-15T14:24:06.264Z,15.83
2023-04-15T14:26:32.939Z,15.78
2023-04-15T14:28:59.587Z,15.62
2023-04-15T14:31:28.431Z,15.55
2023-04-15T14:33:54.942Z,15.48
2023-04-15T14:36:21.367Z,15.42
2023-04-15T14:38:48.705Z,15.30
2023-04-15T14:41:16.081Z,15.27
2023-04-15T14:43:42.565Z,15.04
2023-04-15T14:46:09.148Z,14.99
2023-04-15T14:48:36.013Z,15.08
2023-04-15T14:51:02.661Z,15.19
2023-04-15T14:53:29.194Z,15.18
2023-04-15T14:55:55.561Z,15.15
2023-04-15T14:58:22.451Z,15.13
2023-04-15T15:00:48.965Z,15.14
2023-04-15T15:03:15.791Z,15.04
2023-04-15T15:05:44.778Z,15.03
2023-04-15T15:08:11.696Z,14.95
2023-04-15T15:10:49.510Z,14.85
2023-04-15T15:13:17.454Z,14.81
2023-04-15T15:15:44.025Z,14.84
2023-04-15T15:18:11.392Z,14.91
2023-04-15T15:20:38.071Z,15.00
2023-04-15T15:23:04.656Z,14.95
2023-04-15T15:25:31.173Z,14.87
2023-04-15T15:27:57.912Z,14.75
2023-04-15T15:30:24.369Z,14.76
2023-04-15T15:32:51.496Z,14.71
2023-04-15T15:35:18.047Z,14.55
2023-04-15T15:37:45.629Z,14.61
2023-04-15T15:40:12.582Z,14.61
2023-04-15T15:42:41.231Z,14.70
2023-04-15T15:45:08.030Z,14.66
2023-04-15T15:47:34.714Z,14.65
2023-04-15T15:50:02.597Z,14.62
2023-04-15T15:52:30.247Z,14.66
2023-04-15T15:54:56.649Z,14.61
2023-04-15T15:57:23.087Z,14.53
2023-04-15T15:59:50.064Z,14.38
2023-04-15T16:02:18.201Z,14.23
2023-04-15T16:04:44.717Z,14.17
2023-04-15T16:07:12.048Z,14.12
2023-04-15T16:09:40.946Z,14.16
2023-04-15T16:12:07.494Z,14.13
2023-04-15T16:14:33.970Z,14.16
2023-04-15T16:17:00.526Z,14.14
2023-04-15T16:19:27.049Z,14.19
2023-04-15T16:21:54.001Z,14.21
2023-04-15T16:24:20.586Z,14.14
2023-04-15T16:26:47.184Z,14.12
2023-04-15T16:29:13.611Z,14.07
2023-04-15T16:31:41.414Z,14.03
2023-04-15T16:34:07.859Z,13.88
2023-04-15T16:36:40.290Z,13.88
2023-04-15T16:39:07.070Z,13.88
2023-04-15T16:41:34.809Z,13.74
2023-04-15T16:44:01.986Z,13.56
2023-04-15T16:46:29.634Z,13.55
2023-04-15T16:48:56.230Z,13.62
2023-04-15T16:51:22.715Z,13.58
2023-04-15T16:53:49.363Z,13.55
2023-04-15T16:56:15.918Z,13.51
2023-04-15T16:58:42.376Z,13.34
2023-04-15T17:01:08.905Z,13.18
2023-04-15T17:03:38.643Z,13.18
2023-04-15T17:06:05.538Z,13.19
2023-04-15T17:08:34.964Z,13.23
2023-04-15T17:11:01.552Z,13.28
2023-04-15T17:13:28.056Z,13.27
2023-04-15T17:15:56.738Z,13.27
2023-04-15T17:18:23.291Z,13.20
2023-04-15T17:20:49.867Z,13.13
2023-04-15T17:23:18.898Z,13.10
2023-04-15T17:25:45.518Z,13.13
2023-04-15T17:28:12.013Z,13.14
2023-04-15T17:30:38.512Z,13.08
2023-04-15T17:33:53.463Z,13.02
2023-04-15T17:35:52.937Z,12.86
2023-04-15T17:38:19.385Z,12.75
2023-04-15T17:40:45.795Z,12.79
2023-04-15T17:43:12.342Z,12.82
2023-04-15T17:45:38.817Z,12.64
2023-04-15T17:48:05.384Z,12.67
2023-04-15T17:50:31.993Z,12.72
2023-04-15T17:52:58.585Z,12.65
2023-04-15T17:55:25.243Z,12.58
2023-04-15T17:57:51.788Z,12.46
2023-04-15T18:00:18.336Z,12.46
2023-04-15T18:02:45.221Z,12.50
2023-04-15T18:05:12.233Z,12.53
2023-04-15T18:07:38.741Z,12.50
2023-04-15T18:10:05.832Z,12.47
2023-04-15T18:12:32.349Z,12.48
2023-04-15T18:14:58.906Z,12.46
2023-04-15T18:17:28.394Z,12.41
2023-04-15T18:19:54.849Z,12.35
2023-04-15T18:22:21.494Z,12.28
2023-04-15T18:24:49.946Z,12.21
2023-04-15T18:27:17.074Z,12.07
2023-04-15T18:29:43.933Z,12.12
2023-04-15T18:32:10.479Z,12.14
2023-04-15T18:34:37.047Z,12.09
2023-04-15T18:37:04.897Z,12.12
2023-04-15T18:39:31.559Z,12.08
2023-04-15T18:41:57.992Z,12.01
2023-04-15T18:44:24.389Z,11.93
2023-04-15T18:46:50.901Z,11.88
2023-04-15T18:49:17.418Z,11.92
2023-04-15T18:51:43.861Z,11.81
2023-04-15T18:54:10.484Z,11.85
2023-04-15T18:56:36.923Z,11.91
2023-04-15T18:59:09.927Z,11.86
2023-04-15T19:01:51.500Z,11.79
2023-04-15T19:04:18.293Z,11.76
2023-04-15T19:06:44.820Z,11.76
2023-04-15T19:09:11.523Z,11.78
2023-04-15T19:11:38.464Z,11.70
2023-04-15T19:14:05.208Z,11.69
2023-04-15T19:16:31.766Z,11.69
2023-04-15T19:18:58.334Z,11.71
2023-04-15T19:21:24.951Z,11.68
2023-04-15T19:23:51.542Z,11.62
2023-04-15T19:26:19.796Z,11.57
2023-04-15T19:28:46.213Z,11.52
2023-04-15T19:31:12.635Z,11.51
2023-04-15T19:33:39.166Z,11.55
2023-04-15T19:36:06.705Z,11.63
2023-04-15T19:38:37.671Z,11.66
2023-04-15T19:41:04.290Z,11.67
2023-04-15T19:43:32.470Z,11.71
2023-04-15T19:45:59.226Z,11.67
2023-04-15T19:48:25.830Z,11.56
2023-04-15T19:50:52.234Z,11.51
2023-04-15T19:53:18.751Z,11.51
2023-04-15T19:55:45.723Z,11.43
2023-04-15T19:58:12.185Z,11.43
2023-04-15T20:00:38.755Z,11.48
2023-04-15T20:03:05.646Z,11.55
2023-04-15T20:05:32.389Z,11.59
2023-04-15T20:08:00.279Z,11.60
2023-04-15T20:10:27.121Z,11.55
2023-04-15T20:12:53.632Z,11.50
2023-04-15T20:15:23.414Z,11.51
2023-04-15T20:17:50.630Z,11.50
2023-04-15T20:20:17.325Z,11.43
2023-04-15T20:22:47.424Z,11.41
2023-04-15T20:25:14.168Z,11.34
2023-04-15T20:27:40.584Z,11.24
2023-04-15T20:30:07.647Z,11.17
2023-04-15T20:32:35.903Z,11.21
2023-04-15T20:35:04.398Z,11.27
2023-04-15T20:37:34.627Z,11.31
2023-04-15T20:40:02.441Z,11.29
2023-04-15T20:42:34.416Z,11.29
2023-04-15T20:45:01.446Z,11.32
2023-04-15T20:47:28.113Z,11.34
2023-04-15T20:49:54.600Z,11.34
2023-04-15T20:52:21.155Z,11.37
2023-04-15T20:54:47.646Z,11.41
2023-04-15T20:57:14.112Z,11.43
2023-04-15T20:59:40.767Z,11.40
2023-04-15T21:02:07.352Z,11.42
2023-04-15T21:04:33.953Z,11.42
2023-04-15T21:07:02.982Z,11.49
2023-04-15T21:09:29.636Z,11.48
2023-04-15T21:14:25.618Z,11.41
2023-04-15T21:16:52.132Z,11.35
2023-04-15T21:19:18.505Z,11.39
2023-04-15T21:21:44.992Z,11.34
2023-04-15T21:24:13.956Z,11.29
2023-04-15T21:26:40.703Z,11.29
2023-04-15T21:29:09.584Z,11.25
2023-04-15T21:31:37.832Z,11.16
2023-04-15T21:34:04.419Z,11.14
2023-04-15T21:36:31.663Z,11.19
2023-04-15T21:38:58.247Z,11.16
2023-04-15T21:41:27.736Z,11.11
2023-04-15T21:43:56.755Z,11.13
2023-04-15T21:46:25.636Z,11.15
2023-04-15T21:48:59.369Z,11.21
2023-04-15T21:51:26.673Z,11.25
2023-04-15T21:53:53.081Z,11.26
2023-04-15T21:56:21.554Z,11.28
2023-04-15T21:58:52.042Z,11.24
2023-04-15T22:01:18.592Z,11.23
2023-04-15T22:03:45.302Z,11.18
2023-04-15T22:06:15.783Z,11.17
2023-04-15T22:08:55.193Z,11.16
2023-04-15T22:11:26.847Z,11.09
2023-04-15T22:13:56.943Z,11.05
2023-04-15T22:16:25.508Z,11.10
2023-04-15T22:18:52.028Z,11.11
2023-04-15T22:21:18.527Z,11.08
2023-04-15T22:23:47.166Z,11.07
2023-04-15T22:26:13.520Z,11.10
2023-04-15T22:28:40.062Z,11.11
2023-04-15T22:31:09.327Z,11.12
2023-04-15T22:33:35.994Z,11.14
2023-04-15T22:36:02.433Z,11.15
2023-04-15T22:38:28.963Z,11.17
2023-04-15T22:40:55.361Z,11.16
2023-04-15T22:43:22.067Z,11.16
2023-04-15T22:45:50.571Z,11.10
2023-04-15T22:48:18.149Z,11.09
2023-04-15T22:50:44.575Z,11.13
2023-04-15T22:53:11.176Z,11.13
2023-04-15T22:55:37.631Z,11.12
2023-04-15T22:58:04.163Z,11.16
2023-04-15T23:00:30.691Z,11.14
2023-04-15T23:02:57.175Z,11.10
2023-04-15T23:05:23.944Z,11.06
2023-04-15T23:07:50.682Z,11.03
2023-04-15T23:10:17.162Z,11.00
2023-04-15T23:12:45.988Z,10.96
2023-04-15T23:15:12.514Z,10.96
2023-04-15T23:17:39.001Z,10.94
2023-04-15T23:20:07.218Z,10.86
2023-04-15T23:22:37.489Z,10.84
2023-04-15T23:25:05.107Z,10.80
2023-04-15T23:27:31.587Z,10.82
2023-04-15T23:29:58.004Z,10.86
2023-04-15T23:32:24.676Z,10.83
2023-04-15T23:34:52.223Z,10.72
2023-04-15T23:37:18.915Z,10.77
2023-04-15T23:39:45.410Z,10.81
2023-04-15T23:42:14.629Z,10.76
2023-04-15T23:44:44.133Z,10.72
2023-04-15T23:47:10.628Z,10.68
2023-04-15T23:49:37.038Z,10.65
2023-04-15T23:52:06.298Z,10.66
2023-04-15T23:54:32.790Z,10.63
2023-04-15T23:56:59.135Z,10.53
2023-04-15T23:59:25.559Z,10.46
